North Greece, NY (14515)

12:12 AM EDT on June 02, 2015 (GMT -0400)
Raspberry Patch - North Greece | | Change Station
CLOSE
Current Station
Personal Weather Station
Location: Rochester, NY
Elevation: 325 ft
Nearby Weather Stations

Elev 325 ft 43.25 °N, 77.73 °W | Updated 3 seconds ago

Overcast
Overcast
52.7 °F
Feels Like 52.7 °F
N
0.0
Wind Variable Wind from NNW
Gusts 2.7 mph

Today
High -- | Low -- °F
--% Chance of Precip.
Yesterday
High -- | Low -- °F
Precip. -- in
5:33 AM 8:44 PM
Full, 100% visible
Pressure 30.19 in
Visibility 2.0 miles
Clouds Mostly Cloudy 500 ft
Overcast 900 ft
Dew Point 48 °F
Humidity 83%
Rainfall 0.00 in
Snow Depth Not available.
UV 0 out of 12
Pollen 1.60 out of 12
Air Quality Not available.
Flu Activity Sporadic
METAR KROC 020354Z 02008KT 2SM -RA BR BKN005 OVC009 11/10 A3018 RMK AO2 CIG 003V007 SLP223 VIS 1 1/2V2 1/2 P0000 T01060100

More Conditions Fewer Conditions

Pressure 30.19 in
Visibility 2.0 miles
Clouds Mostly Cloudy 500 ft
Overcast 900 ft
Dew Point 48 °F
Humidity 83%
Rainfall 0.00 in
Snow Depth Not available.
UV 0 out of 12
Pollen 1.60 out of 12
Air Quality Not available.
Flu Activity Sporadic
METAR KROC 020354Z 02008KT 2SM -RA BR BKN005 OVC009 11/10 A3018 RMK AO2 CIG 003V007 SLP223 VIS 1 1/2V2 1/2 P0000 T01060100

More Conditions Fewer Conditions

10-Day Weather Forecast

Almanac

Astronomy

Jun. 02, 2015 Rise Set
Actual Time
Civil Twilight
Nautical Twilight
Astronomical Twilight
Moon
Length of Visible Light
Length of Day
Tomorrow will be .
, % of the Moon is Illuminated

Today's Extremes

State Highs State Lows

Community

WunderPhotos

Upload Photos

1,825,894 photos uploaded!

WunderBlogs® & News

Nearby

Air Quality

  Air Quality AQ Index Pollutant
Not available.

Snow Depth

Station Depth Elevation

Earthquake Activity

City Distance Mag. Time & Date
Minimum magnitude displayed is 2.5.

Coastal Water Temperatures

Place Temperature

Stations

Nearby Weather Stations

Station Location Temp. Windchill Dew Point Humidity Wind Precip. Elev Updated Type